createdAt,value
2018-12-17T00:00:07.980Z,13.63
2018-12-17T00:02:38.868Z,12.63
2018-12-17T00:05:09.830Z,11.13
2018-12-17T00:07:40.717Z,11.80
2018-12-17T00:10:09.984Z,12.10
2018-12-17T00:12:39.153Z,11.87
2018-12-17T00:15:08.964Z,11.53
2018-12-17T00:17:37.966Z,11.70
2018-12-17T00:20:08.070Z,12.13
2018-12-17T00:22:36.977Z,10.90
2018-12-17T00:25:06.568Z,10.60
2018-12-17T00:27:35.560Z,9.90
2018-12-17T00:30:05.383Z,10.70
2018-12-17T00:32:34.320Z,10.57
2018-12-17T00:35:03.878Z,10.97
2018-12-17T00:37:32.785Z,10.33
2018-12-17T00:40:02.200Z,9.73
2018-12-17T00:42:31.374Z,10.47
2018-12-17T00:45:00.468Z,10.27
2018-12-17T00:47:29.340Z,9.93
2018-12-17T00:49:58.296Z,9.40
2018-12-17T00:52:27.584Z,8.80
2018-12-17T00:54:57.432Z,8.87
2018-12-17T00:57:26.452Z,9.37
2018-12-17T00:59:55.276Z,8.43
2018-12-17T01:02:24.227Z,9.07
2018-12-17T01:04:53.073Z,8.60
2018-12-17T01:07:26.065Z,7.77
2018-12-17T01:09:54.898Z,8.80
2018-12-17T01:12:23.772Z,8.17
2018-12-17T01:14:52.668Z,8.27
2018-12-17T01:17:21.564Z,7.83
2018-12-17T01:19:50.413Z,7.13
2018-12-17T01:22:19.335Z,7.07
2018-12-17T01:24:48.232Z,6.37
2018-12-17T01:27:17.129Z,7.20
2018-12-17T01:29:46.012Z,7.47
2018-12-17T01:32:15.128Z,6.90
2018-12-17T01:34:45.041Z,7.23
2018-12-17T01:37:13.901Z,6.83
2018-12-17T01:39:42.794Z,6.83
2018-12-17T01:42:11.785Z,7.80
2018-12-17T01:44:41.693Z,7.63
2018-12-17T01:47:10.599Z,7.97
2018-12-17T01:49:39.491Z,7.10
2018-12-17T01:52:08.373Z,7.40
2018-12-17T01:54:37.977Z,8.07
2018-12-17T01:57:06.879Z,7.67
2018-12-17T01:59:35.861Z,7.90
2018-12-17T02:02:04.809Z,7.83
2018-12-17T02:04:33.665Z,7.13
2018-12-17T02:07:02.553Z,7.07
2018-12-17T02:09:31.360Z,6.70
2018-12-17T02:12:00.317Z,6.33
2018-12-17T02:14:29.204Z,6.87
2018-12-17T02:16:58.154Z,7.10
2018-12-17T02:19:26.983Z,7.17
2018-12-17T02:21:55.882Z,7.97
2018-12-17T02:24:24.762Z,8.03
2018-12-17T02:26:53.633Z,8.00
2018-12-17T02:29:22.586Z,8.20
2018-12-17T02:31:51.418Z,8.10
2018-12-17T02:34:20.397Z,6.67
2018-12-17T02:36:49.422Z,6.80
2018-12-17T02:39:18.319Z,7.00
2018-12-17T02:41:47.212Z,7.40
2018-12-17T02:44:16.480Z,7.47
2018-12-17T02:46:45.293Z,6.87
2018-12-17T02:49:14.504Z,6.80
2018-12-17T02:51:43.461Z,7.63
2018-12-17T02:54:12.464Z,8.50
2018-12-17T02:56:41.299Z,7.80
2018-12-17T02:59:10.927Z,7.83
2018-12-17T03:01:39.769Z,8.40
2018-12-17T03:04:08.750Z,8.10
2018-12-17T03:06:37.636Z,7.27
2018-12-17T03:09:07.800Z,8.23
2018-12-17T03:11:38.609Z,8.47
2018-12-17T03:14:07.545Z,9.50
2018-12-17T03:16:36.624Z,8.23
2018-12-17T03:19:05.917Z,9.13
2018-12-17T03:21:35.304Z,11.17
2018-12-17T03:24:04.479Z,10.07
2018-12-17T03:26:34.880Z,9.60
2018-12-17T03:29:03.911Z,8.97
2018-12-17T03:31:33.037Z,7.90
2018-12-17T03:34:02.122Z,7.60
2018-12-17T03:36:30.996Z,7.13
2018-12-17T03:38:59.872Z,7.13
2018-12-17T03:41:28.772Z,7.60
2018-12-17T03:43:57.668Z,8.03
2018-12-17T03:46:26.553Z,7.60
2018-12-17T03:48:55.452Z,7.73
2018-12-17T03:51:24.353Z,8.37
2018-12-17T03:53:53.212Z,7.63
2018-12-17T03:56:22.109Z,7.33
2018-12-17T03:58:51.006Z,7.13
2018-12-17T04:01:19.911Z,8.63
2018-12-17T04:03:49.091Z,6.93
2018-12-17T04:06:17.961Z,7.23
2018-12-17T04:08:46.875Z,8.20
2018-12-17T04:11:15.753Z,8.70
2018-12-17T04:13:44.610Z,7.53
2018-12-17T04:16:13.433Z,7.80
2018-12-17T04:18:42.320Z,10.67
2018-12-17T04:21:11.154Z,9.23
2018-12-17T04:23:39.992Z,8.50
2018-12-17T04:26:10.876Z,7.67
2018-12-17T04:28:39.731Z,8.10
2018-12-17T04:31:11.795Z,7.53
2018-12-17T04:33:40.769Z,7.33
2018-12-17T04:36:09.700Z,8.57
2018-12-17T04:38:38.678Z,7.83
2018-12-17T04:41:07.702Z,6.87
2018-12-17T04:43:36.662Z,6.63
2018-12-17T04:46:07.206Z,7.57
2018-12-17T04:48:36.193Z,7.87
2018-12-17T04:51:06.568Z,7.60
2018-12-17T04:53:35.420Z,6.53
2018-12-17T04:56:04.277Z,7.33
2018-12-17T04:58:33.093Z,6.80
2018-12-17T05:01:02.105Z,6.57
2018-12-17T05:03:32.116Z,7.03
2018-12-17T05:06:00.975Z,6.73
2018-12-17T05:08:29.855Z,6.40
2018-12-17T05:10:58.753Z,6.93
2018-12-17T05:13:27.610Z,7.03
2018-12-17T05:15:56.536Z,7.37
2018-12-17T05:18:25.416Z,6.40
2018-12-17T05:20:54.325Z,6.43
2018-12-17T05:23:23.202Z,6.97
2018-12-17T05:25:52.105Z,6.20
2018-12-17T05:28:20.984Z,6.30
2018-12-17T05:30:49.876Z,6.13
2018-12-17T05:33:18.908Z,6.73
2018-12-17T05:35:47.789Z,7.13
2018-12-17T05:38:16.655Z,7.63
2018-12-17T05:40:45.546Z,7.20
2018-12-17T05:43:14.436Z,8.27
2018-12-17T05:45:43.345Z,6.87
2018-12-17T05:48:12.277Z,7.37
2018-12-17T05:50:41.485Z,7.17
2018-12-17T05:53:10.348Z,7.73
2018-12-17T05:55:39.221Z,9.00
2018-12-17T05:58:08.177Z,7.60
2018-12-17T06:00:37.069Z,7.80
2018-12-17T06:03:06.308Z,8.20
2018-12-17T06:05:36.088Z,10.67
2018-12-17T06:08:05.000Z,9.47
2018-12-17T06:10:34.985Z,9.03
2018-12-17T06:13:04.387Z,9.30
2018-12-17T06:15:33.288Z,9.67
2018-12-17T06:18:02.184Z,9.30
2018-12-17T06:20:31.062Z,10.47
2018-12-17T06:22:59.984Z,9.93
2018-12-17T06:25:28.966Z,8.60
2018-12-17T06:27:57.957Z,8.83
2018-12-17T06:30:26.829Z,8.37
2018-12-17T06:32:55.682Z,8.77
2018-12-17T06:35:24.534Z,9.40
2018-12-17T06:37:53.984Z,8.63
2018-12-17T06:40:22.857Z,8.90
2018-12-17T06:42:51.713Z,8.67
2018-12-17T06:45:20.581Z,9.97
2018-12-17T06:47:49.489Z,8.63
2018-12-17T06:50:18.348Z,8.67
2018-12-17T06:52:47.390Z,9.00
2018-12-17T06:55:16.240Z,8.80
2018-12-17T06:57:45.480Z,8.53
2018-12-17T07:00:15.365Z,10.07
2018-12-17T07:02:44.331Z,8.57
2018-12-17T07:05:13.225Z,9.37
2018-12-17T07:07:42.112Z,9.30
2018-12-17T07:10:10.949Z,9.40
2018-12-17T07:12:39.904Z,10.40
2018-12-17T07:15:08.797Z,9.87
2018-12-17T07:17:37.700Z,10.13
2018-12-17T07:20:07.073Z,8.50
2018-12-17T07:22:36.014Z,10.00
2018-12-17T07:25:05.308Z,9.10
2018-12-17T07:27:34.172Z,8.97
2018-12-17T07:30:03.373Z,8.67
2018-12-17T07:32:32.364Z,9.07
2018-12-17T07:35:01.307Z,10.27
2018-12-17T07:37:30.449Z,10.27
2018-12-17T07:39:59.333Z,9.60
2018-12-17T07:42:28.232Z,8.57
2018-12-17T07:44:57.216Z,8.40
2018-12-17T07:47:26.116Z,10.20
2018-12-17T07:49:55.715Z,10.43
2018-12-17T07:52:24.680Z,9.37
2018-12-17T07:54:53.616Z,9.50
2018-12-17T07:57:22.543Z,9.30
2018-12-17T07:59:56.682Z,9.07
2018-12-17T08:02:22.229Z,8.67
2018-12-17T08:04:51.084Z,9.33
2018-12-17T08:07:20.005Z,8.63
2018-12-17T08:09:48.876Z,10.50
2018-12-17T08:12:17.776Z,10.73
2018-12-17T08:14:46.673Z,10.20
2018-12-17T08:17:15.733Z,10.53
2018-12-17T08:19:44.784Z,11.00
2018-12-17T08:22:13.692Z,9.93
2018-12-17T08:24:42.793Z,9.37
2018-12-17T08:27:11.636Z,9.27
2018-12-17T08:29:40.646Z,7.93
2018-12-17T08:32:10.450Z,9.03
2018-12-17T08:34:39.255Z,9.63
2018-12-17T08:37:08.123Z,8.70
2018-12-17T08:39:37.002Z,10.03
2018-12-17T08:42:06.148Z,8.00
2018-12-17T08:44:35.089Z,9.17
2018-12-17T08:47:04.214Z,9.27
2018-12-17T08:49:33.036Z,9.27
2018-12-17T08:52:02.896Z,7.73
2018-12-17T08:54:31.789Z,8.77
2018-12-17T08:57:00.787Z,8.33
2018-12-17T08:59:29.700Z,8.27
2018-12-17T09:01:58.558Z,8.00
2018-12-17T09:04:27.440Z,7.53
2018-12-17T09:06:56.381Z,8.47
2018-12-17T09:12:22.404Z,8.10
2018-12-17T09:14:51.265Z,7.23
2018-12-17T09:17:20.276Z,8.00
2018-12-17T09:19:49.144Z,7.70
2018-12-17T09:22:18.032Z,7.47
2018-12-17T09:24:46.941Z,8.30
2018-12-17T09:27:15.809Z,7.30
2018-12-17T09:29:44.704Z,7.87
2018-12-17T09:32:13.700Z,7.10
2018-12-17T09:34:42.582Z,6.97
2018-12-17T09:37:11.633Z,6.47
2018-12-17T09:39:40.477Z,6.20
2018-12-17T09:42:09.305Z,7.17
2018-12-17T09:44:38.377Z,7.10
2018-12-17T09:47:07.250Z,7.23
2018-12-17T09:49:36.277Z,6.10
2018-12-17T09:52:05.638Z,7.17
2018-12-17T09:54:34.540Z,6.43
2018-12-17T09:57:03.528Z,6.50
2018-12-17T09:59:32.497Z,5.50
2018-12-17T10:02:01.407Z,6.23
2018-12-17T10:04:30.324Z,5.80
2018-12-17T10:06:59.197Z,7.10
2018-12-17T10:09:28.024Z,8.13
2018-12-17T10:11:56.856Z,7.50
2018-12-17T10:14:25.811Z,6.77
2018-12-17T10:16:54.645Z,6.77
2018-12-17T10:19:23.629Z,6.07
2018-12-17T10:21:52.471Z,5.47
2018-12-17T10:24:25.249Z,5.60
2018-12-17T10:26:54.206Z,5.50
2018-12-17T10:29:23.200Z,6.47
2018-12-17T10:31:52.175Z,6.93
2018-12-17T10:34:21.084Z,7.20
2018-12-17T10:36:49.957Z,6.70
2018-12-17T10:39:18.866Z,5.93
2018-12-17T10:41:47.744Z,6.00
2018-12-17T10:44:18.613Z,6.20
2018-12-17T10:46:47.473Z,5.50
2018-12-17T10:49:16.569Z,5.43
2018-12-17T10:51:45.420Z,5.53
2018-12-17T10:54:14.265Z,6.17
2018-12-17T10:56:43.361Z,6.43
2018-12-17T10:59:12.242Z,6.33
2018-12-17T11:01:46.377Z,6.27
2018-12-17T11:04:21.305Z,6.40
2018-12-17T11:06:50.173Z,6.63
2018-12-17T11:09:19.061Z,5.93
2018-12-17T11:11:47.949Z,5.77
2018-12-17T11:14:16.856Z,5.93
2018-12-17T11:16:45.729Z,5.90
2018-12-17T11:19:14.749Z,6.40
2018-12-17T11:21:43.720Z,6.07
2018-12-17T11:24:12.965Z,6.30
2018-12-17T11:26:41.801Z,5.20
2018-12-17T11:29:10.889Z,6.13
2018-12-17T11:31:39.809Z,7.00
2018-12-17T11:34:08.685Z,7.03
2018-12-17T11:36:38.256Z,6.50
2018-12-17T11:39:10.086Z,6.60
2018-12-17T11:41:40.906Z,7.27
2018-12-17T11:44:09.760Z,5.90
2018-12-17T11:46:38.772Z,6.33
2018-12-17T11:49:07.772Z,6.40
2018-12-17T11:51:36.652Z,5.77
2018-12-17T11:54:05.656Z,6.77
2018-12-17T11:57:50.004Z,5.83
2018-12-17T12:00:21.738Z,5.70
2018-12-17T12:02:50.909Z,5.33
2018-12-17T12:05:19.789Z,5.63
2018-12-17T12:07:50.272Z,5.47
2018-12-17T12:10:21.234Z,4.97
2018-12-17T12:12:50.317Z,5.60
2018-12-17T12:15:19.297Z,4.97
2018-12-17T12:17:48.205Z,4.40
2018-12-17T12:20:17.221Z,3.77
2018-12-17T12:22:46.168Z,3.80
2018-12-17T12:25:15.068Z,3.27
2018-12-17T12:27:43.949Z,3.70
2018-12-17T12:30:13.368Z,3.53
2018-12-17T12:32:42.269Z,3.47
2018-12-17T12:35:12.418Z,2.60
2018-12-17T12:37:41.253Z,3.10
2018-12-17T12:40:10.360Z,3.57
2018-12-17T12:42:39.243Z,2.63
2018-12-17T12:45:08.245Z,2.80
2018-12-17T12:47:37.166Z,2.60
2018-12-17T12:50:07.334Z,3.10
2018-12-17T12:52:36.343Z,3.00
2018-12-17T12:55:06.220Z,3.33
2018-12-17T12:57:36.174Z,2.83
2018-12-17T13:00:08.349Z,2.40
2018-12-17T13:02:37.333Z,2.80
2018-12-17T13:05:06.443Z,2.50
2018-12-17T13:07:35.621Z,2.50
2018-12-17T13:10:08.500Z,2.67
2018-12-17T13:12:37.405Z,3.00
2018-12-17T13:15:08.145Z,3.17
2018-12-17T13:17:37.525Z,2.70
2018-12-17T13:20:08.036Z,2.60
2018-12-17T13:22:37.347Z,2.93
2018-12-17T13:25:09.984Z,3.00
2018-12-17T13:27:39.352Z,3.30
2018-12-17T13:30:09.777Z,2.37
2018-12-17T13:32:38.757Z,2.67
2018-12-17T13:35:08.900Z,2.37
2018-12-17T13:37:37.775Z,2.27
2018-12-17T13:40:09.043Z,2.70
2018-12-17T13:42:38.120Z,2.60
2018-12-17T13:45:07.530Z,2.97
2018-12-17T13:47:36.509Z,2.17
2018-12-17T13:50:10.869Z,2.67
2018-12-17T13:52:46.189Z,2.33
2018-12-17T13:55:15.773Z,2.63
2018-12-17T13:57:44.663Z,2.93
2018-12-17T14:00:13.860Z,3.10
2018-12-17T14:02:43.580Z,2.63
2018-12-17T14:05:13.250Z,2.87
2018-12-17T14:07:42.182Z,3.37
2018-12-17T14:11:18.512Z,3.03
2018-12-17T14:13:47.433Z,3.67
2018-12-17T14:16:16.585Z,2.67
2018-12-17T14:18:51.086Z,2.93
2018-12-17T14:21:25.275Z,2.70
2018-12-17T14:23:54.158Z,3.10
2018-12-17T14:26:23.050Z,3.00
2018-12-17T14:28:51.880Z,2.77
2018-12-17T14:31:20.764Z,2.87
2018-12-17T14:33:49.701Z,2.63
2018-12-17T14:36:18.661Z,2.90
2018-12-17T14:38:47.592Z,3.10
2018-12-17T14:41:16.589Z,3.20
2018-12-17T14:43:45.469Z,2.70
2018-12-17T14:46:14.675Z,3.90
2018-12-17T14:48:43.596Z,3.17
2018-12-17T14:51:12.679Z,3.20
2018-12-17T14:53:42.592Z,3.50
2018-12-17T14:56:11.985Z,4.20
2018-12-17T14:58:44.512Z,3.37
2018-12-17T15:01:11.737Z,2.90
2018-12-17T15:03:40.616Z,3.60
2018-12-17T15:06:09.608Z,3.80
2018-12-17T15:08:38.494Z,3.10
2018-12-17T15:11:07.661Z,3.33
2018-12-17T15:13:36.638Z,2.90
2018-12-17T15:16:05.666Z,2.73
2018-12-17T15:18:34.597Z,3.43
2018-12-17T15:21:03.549Z,3.13
2018-12-17T15:23:32.559Z,3.53
2018-12-17T15:26:01.658Z,3.90
2018-12-17T15:28:30.563Z,3.77
2018-12-17T15:30:59.403Z,3.57
2018-12-17T15:33:28.429Z,3.93
2018-12-17T15:35:57.297Z,3.53
2018-12-17T15:38:26.200Z,4.20
2018-12-17T15:40:55.074Z,3.87
2018-12-17T15:43:24.031Z,3.40
2018-12-17T15:46:16.195Z,3.87
2018-12-17T15:58:08.941Z,3.90
2018-12-17T16:03:56.153Z,3.60
2018-12-17T16:06:26.396Z,3.97
2018-12-17T16:11:51.107Z,3.00
2018-12-17T16:14:28.651Z,3.43
2018-12-17T16:16:57.470Z,3.33
2018-12-17T16:22:45.546Z,4.17
2018-12-17T16:25:14.629Z,3.53
2018-12-17T16:27:43.520Z,5.77
2018-12-17T16:30:12.834Z,4.80
2018-12-17T16:32:41.745Z,3.87
2018-12-17T16:35:10.656Z,3.83
2018-12-17T16:37:39.501Z,4.60
2018-12-17T16:40:08.619Z,4.07
2018-12-17T16:42:37.589Z,3.73
2018-12-17T16:45:08.401Z,4.33
2018-12-17T16:47:37.311Z,4.00
2018-12-17T16:50:08.669Z,4.60
2018-12-17T16:52:37.549Z,4.40
2018-12-17T16:55:06.635Z,4.37
2018-12-17T16:57:35.516Z,4.00
2018-12-17T17:00:05.441Z,4.07
2018-12-17T17:02:35.280Z,4.23
2018-12-17T17:05:04.381Z,4.40
2018-12-17T17:07:33.277Z,4.47
2018-12-17T17:10:05.900Z,4.53
2018-12-17T17:12:35.223Z,4.13
2018-12-17T17:15:04.696Z,4.00
2018-12-17T17:17:33.705Z,4.90
2018-12-17T17:20:02.544Z,5.00
2018-12-17T17:22:31.589Z,5.27
2018-12-17T17:25:00.493Z,4.50
2018-12-17T17:27:29.412Z,4.40
2018-12-17T17:29:58.336Z,4.30
2018-12-17T17:32:27.104Z,4.57
2018-12-17T17:34:55.996Z,3.77
2018-12-17T17:37:25.302Z,4.10
2018-12-17T17:39:54.252Z,4.60
2018-12-17T17:42:23.114Z,5.00
2018-12-17T17:44:52.767Z,4.83
2018-12-17T17:47:21.746Z,4.27
2018-12-17T17:49:50.583Z,4.90
2018-12-17T17:52:19.841Z,4.30
2018-12-17T17:54:48.717Z,5.23
2018-12-17T17:57:17.605Z,4.10
2018-12-17T17:59:46.601Z,4.30
2018-12-17T18:02:18.730Z,4.73
2018-12-17T18:04:46.314Z,4.70
2018-12-17T18:07:15.234Z,3.97
2018-12-17T18:09:44.197Z,4.23
2018-12-17T18:12:13.072Z,4.40
2018-12-17T18:14:41.981Z,5.03
2018-12-17T18:17:10.865Z,4.60
2018-12-17T18:19:40.788Z,5.73
2018-12-17T18:22:09.665Z,4.70
2018-12-17T18:24:38.502Z,5.57
2018-12-17T18:27:07.345Z,5.13
2018-12-17T18:29:36.241Z,4.33
2018-12-17T18:32:05.253Z,5.53
2018-12-17T18:34:34.127Z,4.30
2018-12-17T18:37:03.086Z,4.43
2018-12-17T18:39:31.894Z,4.90
2018-12-17T18:42:00.797Z,4.97
2018-12-17T18:44:29.721Z,5.33
2018-12-17T18:46:58.620Z,4.80
2018-12-17T18:49:27.580Z,4.50
2018-12-17T18:51:56.485Z,5.13
2018-12-17T18:54:25.365Z,4.23
2018-12-17T18:56:54.388Z,5.07
2018-12-17T18:59:23.244Z,5.97
2018-12-17T19:01:52.102Z,4.57
2018-12-17T19:04:21.133Z,5.07
2018-12-17T19:06:49.984Z,5.00
2018-12-17T19:09:18.820Z,4.97
2018-12-17T19:11:47.872Z,4.77
2018-12-17T19:14:16.776Z,4.60
2018-12-17T19:16:46.081Z,5.67
2018-12-17T19:19:17.330Z,4.93
2018-12-17T19:21:46.217Z,5.67
2018-12-17T19:24:15.224Z,5.07
2018-12-17T19:26:44.220Z,5.03
2018-12-17T19:29:13.097Z,5.43
2018-12-17T19:31:42.122Z,5.60
2018-12-17T19:34:11.149Z,4.50
2018-12-17T19:36:39.989Z,4.43
2018-12-17T19:39:08.876Z,4.53
2018-12-17T19:41:39.712Z,4.63
2018-12-17T19:44:08.697Z,4.60
2018-12-17T19:46:37.626Z,4.47
2018-12-17T19:49:06.868Z,7.50
2018-12-17T19:51:35.778Z,5.80
2018-12-17T19:54:04.769Z,5.17
2018-12-17T19:56:33.864Z,5.17
2018-12-17T19:59:02.745Z,5.20
2018-12-17T20:01:31.801Z,4.90
2018-12-17T20:04:00.733Z,4.07
2018-12-17T20:06:30.453Z,5.33
2018-12-17T20:08:59.425Z,4.77
2018-12-17T20:11:28.348Z,4.93
2018-12-17T20:13:58.053Z,4.63
2018-12-17T20:16:26.929Z,5.37
2018-12-17T20:18:55.778Z,4.90
2018-12-17T20:21:24.593Z,4.73
2018-12-17T20:23:54.034Z,5.13
2018-12-17T20:26:22.908Z,4.90
2018-12-17T20:28:51.781Z,5.57
2018-12-17T20:31:20.707Z,5.07
2018-12-17T20:33:49.680Z,6.37
2018-12-17T20:36:18.741Z,6.30
2018-12-17T20:38:47.866Z,6.13
2018-12-17T20:41:16.684Z,5.83
2018-12-17T20:43:45.552Z,5.93
2018-12-17T20:46:14.936Z,5.90
2018-12-17T20:48:43.842Z,8.27
2018-12-17T20:51:12.724Z,6.83
2018-12-17T20:53:41.571Z,7.67
2018-12-17T20:59:09.317Z,6.23
2018-12-17T21:01:38.170Z,5.13
2018-12-17T21:04:07.012Z,4.23
2018-12-17T21:06:35.865Z,4.73
2018-12-17T21:09:07.846Z,6.17
2018-12-17T21:11:38.860Z,4.80
2018-12-17T21:14:07.762Z,4.43
2018-12-17T21:16:36.662Z,5.03
2018-12-17T21:19:05.750Z,5.60
2018-12-17T21:21:35.360Z,6.00
2018-12-17T21:24:05.051Z,4.50
2018-12-17T21:26:34.116Z,4.27
2018-12-17T21:29:03.067Z,5.37
2018-12-17T21:31:31.972Z,5.33
2018-12-17T21:34:00.973Z,4.73
2018-12-17T21:36:29.814Z,4.70
2018-12-17T21:38:58.696Z,5.80
2018-12-17T21:41:27.638Z,5.17
2018-12-17T21:43:56.573Z,5.03
2018-12-17T21:46:25.490Z,6.70
2018-12-17T21:48:54.425Z,5.57
2018-12-17T21:51:23.261Z,7.10
2018-12-17T21:53:52.167Z,7.40
2018-12-17T21:56:21.070Z,7.97
2018-12-17T21:58:51.332Z,6.50
2018-12-17T22:01:20.416Z,5.83
2018-12-17T22:03:49.449Z,7.20
2018-12-17T22:06:18.460Z,7.30
2018-12-17T22:08:47.309Z,7.00
2018-12-17T22:11:16.262Z,5.90
2018-12-17T22:13:46.250Z,6.20
2018-12-17T22:16:15.242Z,5.43
2018-12-17T22:18:44.472Z,5.73
2018-12-17T22:21:14.372Z,6.30
2018-12-17T22:23:44.069Z,6.63
2018-12-17T22:26:14.600Z,6.30
2018-12-17T22:28:43.572Z,5.83
2018-12-17T22:31:12.719Z,5.93
2018-12-17T22:33:41.630Z,5.40
2018-12-17T22:36:10.785Z,5.87
2018-12-17T22:38:40.042Z,6.43
2018-12-17T22:41:09.222Z,5.37
2018-12-17T22:43:38.243Z,5.40
2018-12-17T22:46:07.146Z,5.83
2018-12-17T22:48:36.029Z,6.27
2018-12-17T22:51:05.720Z,5.60
2018-12-17T22:53:34.738Z,5.53
2018-12-17T22:56:03.646Z,6.17
2018-12-17T22:58:32.533Z,6.03
2018-12-17T23:01:01.526Z,5.80
2018-12-17T23:03:32.333Z,5.27
2018-12-17T23:06:01.215Z,5.67
2018-12-17T23:08:31.542Z,5.30
2018-12-17T23:11:11.886Z,6.20
2018-12-17T23:13:52.125Z,5.40
2018-12-17T23:16:32.336Z,6.43
2018-12-17T23:19:00.340Z,5.10
2018-12-17T23:21:31.252Z,5.13
2018-12-17T23:24:02.076Z,5.50
2018-12-17T23:26:34.737Z,4.90
2018-12-17T23:29:04.445Z,5.63
2018-12-17T23:31:33.350Z,6.53
2018-12-17T23:34:02.652Z,6.07
2018-12-17T23:36:31.949Z,5.93
2018-12-17T23:39:00.849Z,6.83
2018-12-17T23:41:31.797Z,6.67
2018-12-17T23:44:00.713Z,7.20
2018-12-17T23:46:29.831Z,7.03
2018-12-17T23:48:58.961Z,7.00
2018-12-17T23:51:27.891Z,6.47
2018-12-17T23:53:56.850Z,6.87
2018-12-17T23:56:25.739Z,8.00
2018-12-17T23:58:54.786Z,7.03
